Time;durP1;ratioP1;P1;durP2;ratioP2;P2;SDS_P1;SDS_P2;PMS_P1;PMS_P2;Temp;Humidity;BMP_temperature;BMP_pressure;BME280_temperature;BME280_humidity;BME280_pressure;Samples;Min_cycle;Max_cycle;Signal;HPM_P1;HPM_P2
2024/02/08 00:03:10;;;;;;;7.40;3.50;;;;;;;0.43;83.87;98652.90;218138;1256;140328;-70
2024/02/08 00:08:15;;;;;;;5.40;3.00;;;;;;;0.38;83.98;98654.05;217589;1256;139455;-69
2024/02/08 00:13:20;;;;;;;11.40;2.40;;;;;;;0.33;83.64;98653.98;217381;1259;140076;-69
2024/02/08 00:18:25;;;;;;;5.10;2.40;;;;;;;0.31;83.93;98660.80;217955;1257;140498;-69
2024/02/08 00:23:30;;;;;;;7.50;3.70;;;;;;;0.21;83.57;98666.73;217482;1257;139729;-70
2024/02/08 00:28:35;;;;;;;9.90;2.90;;;;;;;0.15;83.49;98671.81;217285;1257;139731;-69
2024/02/08 00:33:40;;;;;;;10.00;2.70;;;;;;;0.10;83.16;98672.98;216897;1257;139488;-71
2024/02/08 00:38:44;;;;;;;6.00;2.60;;;;;;;0.02;83.50;98671.13;218661;1256;139805;-69
2024/02/08 00:43:51;;;;;;;5.10;3.30;;;;;;;-0.01;83.10;98668.73;217681;1257;140521;-69
2024/02/08 00:48:56;;;;;;;4.70;2.10;;;;;;;-0.03;83.45;98663.06;218382;1256;140142;-71
2024/02/08 00:54:02;;;;;;;5.10;2.30;;;;;;;-0.08;83.22;98663.84;216924;1260;140639;-72
2024/02/08 00:59:07;;;;;;;4.00;2.10;;;;;;;-0.10;83.39;98669.02;217174;1259;140431;-71
2024/02/08 01:04:11;;;;;;;5.90;2.60;;;;;;;-0.13;83.01;98670.77;216972;1260;139415;-70
2024/02/08 01:09:19;;;;;;;5.30;2.20;;;;;;;-0.17;83.26;98675.34;216935;1259;140771;-70
2024/02/08 01:14:23;;;;;;;8.40;3.80;;;;;;;-0.21;83.26;98674.45;218081;1256;142055;-70
2024/02/08 01:19:28;;;;;;;5.30;2.90;;;;;;;-0.24;83.08;98673.51;217277;1259;140161;-71
2024/02/08 01:24:32;;;;;;;6.00;2.80;;;;;;;-0.25;83.43;98674.63;217302;1257;140297;-70
2024/02/08 01:29:36;;;;;;;11.20;3.30;;;;;;;-0.28;83.30;98675.95;216948;1257;140285;-70
2024/02/08 01:34:44;;;;;;;9.00;2.70;;;;;;;-0.29;83.07;98682.90;217071;1259;140153;-71
2024/02/08 01:39:50;;;;;;;4.60;3.00;;;;;;;-0.29;83.43;98684.23;218022;1256;140729;-70
2024/02/08 01:45:30;;;;;;;7.20;2.40;;;;;;;-0.32;83.43;98681.09;218366;1256;140795;-71
2024/02/08 01:50:39;;;;;;;8.40;4.50;;;;;;;-0.36;83.42;98682.42;217453;1259;140253;-69
2024/02/08 01:55:49;;;;;;;10.20;3.00;;;;;;;-0.37;83.35;98684.77;218304;1256;139986;-69
2024/02/08 02:00:56;;;;;;;4.90;2.10;;;;;;;-0.36;83.52;98687.62;217787;1257;140625;-69
2024/02/08 02:06:01;;;;;;;7.70;2.40;;;;;;;-0.37;83.33;98681.58;217557;1257;139395;-68
2024/02/08 02:11:29;;;;;;;4.40;1.70;;;;;;;-0.39;83.44;98684.70;218790;1256;139351;-69
2024/02/08 02:16:33;;;;;;;6.10;2.20;;;;;;;-0.43;83.23;98682.02;217197;1256;140874;-69
2024/02/08 02:21:39;;;;;;;2.20;2.00;;;;;;;-0.46;83.42;98683.48;217931;1256;140505;-69
2024/02/08 02:26:43;;;;;;;5.30;2.30;;;;;;;-0.53;83.17;98688.81;218137;1256;139915;-68
2024/02/08 02:31:50;;;;;;;4.10;2.00;;;;;;;-0.60;83.21;98685.53;217066;1256;140184;-68
2024/02/08 02:36:58;;;;;;;5.40;2.20;;;;;;;-0.66;83.16;98687.58;217185;1256;139674;-68
2024/02/08 02:42:02;;;;;;;;;;;;;;;-0.74;83.25;98697.61;217447;1257;140540;-68
2024/02/08 02:47:08;;;;;;;10.70;2.60;;;;;;;-0.80;83.31;98692.73;217489;1256;127110;-68
2024/02/08 02:52:12;;;;;;;8.60;2.50;;;;;;;-0.83;83.19;98694.54;217149;1257;140661;-68
2024/02/08 02:57:18;;;;;;;7.90;1.60;;;;;;;-0.87;83.71;98691.29;217784;1256;139803;-68
2024/02/08 03:02:28;;;;;;;7.00;1.90;;;;;;;-0.91;83.73;98692.86;218555;1256;140235;-69
2024/02/08 03:07:32;;;;;;;4.80;1.60;;;;;;;-0.96;83.50;98696.36;218433;1256;139527;-67
2024/02/08 03:12:43;;;;;;;2.60;1.70;;;;;;;-1.02;83.40;98695.09;217496;1256;140190;-68
2024/02/08 03:17:49;;;;;;;3.80;1.80;;;;;;;-1.11;83.30;98697.17;217529;1259;140416;-68
2024/02/08 03:22:53;;;;;;;4.20;2.00;;;;;;;-1.20;83.26;98695.50;218406;1257;140644;-69
2024/02/08 03:27:58;;;;;;;6.10;2.30;;;;;;;-1.26;83.24;98698.23;217973;1257;139356;-69
2024/02/08 03:33:15;;;;;;;10.40;2.70;;;;;;;-1.31;83.52;98701.82;219907;1256;140676;-69
2024/02/08 03:38:23;;;;;;;8.00;2.30;;;;;;;-1.33;83.59;98706.91;220070;1256;141684;-71
2024/02/08 03:43:28;;;;;;;5.00;1.50;;;;;;;-1.38;83.47;98714.21;219941;1256;139758;-72
2024/02/08 03:48:32;;;;;;;7.90;2.40;;;;;;;-1.45;83.42;98719.46;219736;1256;140570;-69
2024/02/08 03:53:37;;;;;;;10.50;2.10;;;;;;;-1.48;83.64;98723.52;218327;1256;140791;-68
2024/02/08 03:58:46;;;;;;;4.90;2.10;;;;;;;-1.50;83.55;98723.98;218254;1256;140491;-70
2024/02/08 04:03:56;;;;;;;6.60;2.60;;;;;;;-1.50;83.83;98719.40;216894;1256;139689;-67
2024/02/08 04:09:16;;;;;;;5.10;2.30;;;;;;;-1.51;83.70;98722.04;217068;1257;150482;-67
2024/02/08 04:57:29;;;;;;;5.50;2.40;;;;;;;-1.83;85.24;98716.33;217425;1259;140029;-68
2024/02/08 05:02:33;;;;;;;10.10;3.40;;;;;;;-1.82;85.54;98719.63;217428;1259;139823;-67
2024/02/08 05:07:39;;;;;;;9.50;3.20;;;;;;;-1.79;85.59;98720.31;218079;1256;141100;-68
2024/02/08 05:12:46;;;;;;;4.40;2.20;;;;;;;-1.76;85.71;98721.00;217704;1256;140064;-66
2024/02/08 05:17:54;;;;;;;5.70;1.90;;;;;;;-1.74;85.75;98721.27;217047;1257;140103;-66
2024/02/08 05:23:00;;;;;;;7.10;3.10;;;;;;;-1.74;85.74;98725.45;218817;1257;139450;-67
2024/02/08 05:28:04;;;;;;;10.90;5.80;;;;;;;-1.72;85.82;98727.13;220112;1256;140857;-70
2024/02/08 05:33:08;;;;;;;13.70;9.00;;;;;;;-1.74;85.32;98728.07;218483;1259;140914;-68
2024/02/08 05:38:15;;;;;;;18.40;12.50;;;;;;;-1.72;85.78;98735.92;218893;1259;140353;-69
2024/02/08 05:43:30;;;;;;;15.80;7.70;;;;;;;-1.69;85.99;98726.36;218133;1256;140926;-66
2024/02/08 05:48:39;;;;;;;14.50;12.10;;;;;;;-1.68;85.88;98726.80;218483;1257;142070;-68
2024/02/08 05:53:44;;;;;;;18.30;11.90;;;;;;;-1.69;85.96;98727.00;219105;1257;140664;-67
2024/02/08 05:58:51;;;;;;;14.60;8.90;;;;;;;-1.69;86.10;98732.59;218760;1257;140812;-67
2024/02/08 06:04:00;;;;;;;18.00;6.50;;;;;;;-1.70;86.11;98742.83;218961;1256;142015;-70
2024/02/08 06:09:33;;;;;;;12.50;5.30;;;;;;;-1.68;86.34;98747.52;218411;1257;140247;-68
2024/02/08 06:14:38;;;;;;;25.40;7.70;;;;;;;-1.69;86.21;98748.30;217857;1257;140660;-69
2024/02/08 06:19:51;;;;;;;8.90;5.80;;;;;;;-1.69;86.32;98754.17;217189;1259;141019;-66
2024/02/08 06:25:27;;;;;;;10.80;5.40;;;;;;;-1.68;86.71;98746.98;217230;1257;139646;-66
2024/02/08 06:30:32;;;;;;;9.60;5.70;;;;;;;-1.65;86.66;98748.92;217066;1257;140998;-66
2024/02/08 06:35:38;;;;;;;14.30;6.80;;;;;;;-1.63;86.84;98750.80;217304;1256;140782;-65
2024/02/08 06:40:53;;;;;;;16.90;9.20;;;;;;;-1.60;86.94;98749.39;218363;1259;139774;-69
2024/02/08 07:39:46;;;;;;;15.40;7.60;;;;;;;-1.00;88.01;98764.81;219498;1257;139969;-71
2024/02/08 07:44:54;;;;;;;18.50;8.10;;;;;;;-0.90;87.84;98760.57;218069;1256;140853;-68
2024/02/08 07:50:04;;;;;;;13.70;7.80;;;;;;;-0.80;87.63;98759.41;217235;1257;151709;-68
2024/02/08 07:55:14;;;;;;;17.80;8.90;;;;;;;-0.71;87.58;98758.27;219730;1257;141789;-69
2024/02/08 08:05:42;;;;;;;20.10;11.30;;;;;;;-0.50;87.57;98744.38;217555;1257;140835;-67
2024/02/08 08:10:47;;;;;;;26.80;11.50;;;;;;;-0.39;87.46;98743.51;217678;1256;140726;-67
2024/02/08 08:16:35;;;;;;;23.30;10.40;;;;;;;-0.29;87.56;98737.21;217079;1259;140283;-68
2024/02/08 08:21:25;;;;;;;21.40;12.50;;;;;;;-0.17;87.60;98736.63;217955;1256;139947;-69
2024/02/08 08:26:39;;;;;;;20.40;11.40;;;;;;;-0.02;87.13;98733.46;217941;1259;139894;-68
2024/02/08 08:31:53;;;;;;;22.40;10.00;;;;;;;0.16;87.27;98725.05;217863;1259;141007;-67
2024/02/08 08:37:02;;;;;;;21.00;9.20;;;;;;;0.30;87.52;98720.81;217504;1257;223270;-67
2024/02/08 08:42:16;;;;;;;17.60;9.90;;;;;;;0.42;86.57;98720.62;218394;1259;140828;-66
2024/02/08 08:47:24;;;;;;;21.90;10.40;;;;;;;0.49;86.57;98725.59;217065;1256;139843;-66
2024/02/08 08:52:46;;;;;;;22.30;11.40;;;;;;;0.62;86.51;98722.05;217122;1257;141045;-66
2024/02/08 08:57:54;;;;;;;24.00;11.10;;;;;;;0.67;86.08;98720.67;218708;1256;140556;-67
2024/02/08 09:02:59;;;;;;;36.20;13.90;;;;;;;0.66;85.77;98721.92;219948;1257;140557;-70
2024/02/08 09:08:09;;;;;;;19.80;9.80;;;;;;;0.72;85.87;98718.45;217998;1257;140198;-69
2024/02/08 09:13:18;;;;;;;22.10;11.20;;;;;;;0.82;85.43;98713.41;219973;1257;140809;-69
2024/02/08 09:18:55;;;;;;;14.00;8.70;;;;;;;0.83;85.16;98712.48;219647;1257;140491;-68
2024/02/08 09:23:46;;;;;;;15.10;7.70;;;;;;;0.85;84.94;98704.39;220109;1257;140316;-68
2024/02/08 09:28:52;;;;;;;20.40;10.20;;;;;;;0.93;84.80;98716.30;219211;1257;140549;-69
2024/02/08 09:34:00;;;;;;;21.00;10.00;;;;;;;1.11;84.69;98718.54;217760;1256;140200;-68
2024/02/08 09:39:14;;;;;;;19.10;10.10;;;;;;;1.40;84.88;98707.34;218023;1260;141925;-68
2024/02/08 09:44:26;;;;;;;14.00;7.30;;;;;;;1.57;84.36;98708.76;219285;1256;139917;-68
2024/02/08 09:49:34;;;;;;;15.50;7.10;;;;;;;1.64;84.41;98705.93;217007;1260;141722;-68
2024/02/08 09:54:46;;;;;;;15.30;6.70;;;;;;;1.66;84.07;98702.34;217337;1256;139753;-68
2024/02/08 09:59:59;;;;;;;21.90;8.20;;;;;;;1.61;83.56;98700.32;217612;1257;140670;-70
2024/02/08 10:10:29;;;;;;;23.70;9.70;;;;;;;1.53;83.79;98699.10;216990;1259;140360;-67
2024/02/08 10:15:39;;;;;;;26.00;9.20;;;;;;;1.50;83.42;98701.46;217703;1257;141639;-68
2024/02/08 10:20:45;;;;;;;17.10;9.20;;;;;;;1.52;83.53;98694.23;218209;1259;139672;-68
2024/02/08 10:31:28;;;;;;;18.20;10.00;;;;;;;1.61;83.65;98698.38;217413;1257;139900;-68
2024/02/08 10:36:35;;;;;;;19.80;10.00;;;;;;;1.65;83.58;98698.42;217850;1257;139985;-68
2024/02/08 10:41:57;;;;;;;15.60;9.20;;;;;;;1.64;83.55;98696.92;218368;1259;141167;-69
2024/02/08 10:47:06;;;;;;;21.90;9.10;;;;;;;1.60;83.02;98678.41;219022;1257;139719;-69
2024/02/08 10:52:12;;;;;;;18.70;10.90;;;;;;;1.62;83.33;98662.36;217016;1257;140228;-67
2024/02/08 11:02:49;;;;;;;17.40;9.90;;;;;;;1.78;83.10;98663.17;219802;1257;139696;-72
2024/02/08 11:07:53;;;;;;;24.00;10.90;;;;;;;1.86;83.00;98652.35;219375;1257;140536;-72
2024/02/08 11:13:10;;;;;;;22.80;9.80;;;;;;;1.99;83.37;98670.24;219629;1257;140811;-72
2024/02/08 11:18:35;;;;;;;13.20;8.20;;;;;;;2.12;83.16;98679.80;216979;1257;140692;-70
2024/02/08 11:23:49;;;;;;;9.60;5.60;;;;;;;2.26;82.81;98667.63;216740;1257;139876;-73
2024/02/08 11:29:04;;;;;;;17.50;7.70;;;;;;;2.32;82.10;98660.77;217008;1260;139595;-73
2024/02/08 11:34:24;;;;;;;15.20;6.80;;;;;;;2.36;81.85;98654.20;217767;1257;139677;-71
2024/02/08 11:39:29;;;;;;;13.20;6.40;;;;;;;2.26;81.29;98642.05;218639;1260;139549;-68
2024/02/08 11:44:36;;;;;;;11.00;4.40;;;;;;;2.26;81.39;98621.91;217431;1257;140508;-68
2024/02/08 11:49:52;;;;;;;11.10;4.70;;;;;;;2.24;81.23;98604.61;217021;1260;140027;-68
2024/02/08 11:55:12;;;;;;;13.50;5.90;;;;;;;2.16;81.04;98607.34;217379;1257;139730;-68
2024/02/08 12:00:17;;;;;;;11.70;6.80;;;;;;;2.18;81.19;98622.91;217206;1257;139635;-68
2024/02/08 12:05:24;;;;;;;13.80;5.50;;;;;;;2.30;81.48;98616.27;217787;1260;140719;-68
2024/02/08 12:10:29;;;;;;;15.60;6.80;;;;;;;2.33;80.98;98589.64;218333;1260;140052;-67
2024/02/08 12:15:34;;;;;;;19.60;6.30;;;;;;;2.41;81.58;98603.58;216971;1260;140390;-71
2024/02/08 12:20:43;;;;;;;9.60;4.10;;;;;;;2.49;81.32;98603.35;218495;1257;140415;-69
2024/02/08 12:25:53;;;;;;;11.50;4.80;;;;;;;2.49;81.05;98601.16;217144;1257;139952;-70
2024/02/08 12:30:59;;;;;;;14.70;6.20;;;;;;;2.42;80.71;98597.05;217180;1258;139911;-71
2024/02/08 12:36:04;;;;;;;13.10;6.50;;;;;;;2.38;80.89;98589.05;219445;1257;140375;-71
2024/02/08 12:41:10;;;;;;;14.20;6.30;;;;;;;2.34;80.71;98583.61;217516;1260;140750;-71
2024/02/08 12:46:17;;;;;;;17.50;6.40;;;;;;;2.32;80.45;98576.70;218719;1260;139543;-70
2024/02/08 12:51:22;;;;;;;14.30;4.60;;;;;;;2.28;80.22;98568.99;218880;1257;139880;-72
2024/02/08 12:56:27;;;;;;;10.80;5.40;;;;;;;2.27;80.35;98562.77;218474;1260;139847;-71
2024/02/08 13:01:41;;;;;;;11.90;4.70;;;;;;;2.25;80.12;98548.90;218826;1260;208078;-71
2024/02/08 13:06:49;;;;;;;11.30;4.10;;;;;;;2.23;80.08;98547.29;218011;1256;220185;-69
2024/02/08 13:12:23;;;;;;;10.80;4.10;;;;;;;2.27;80.05;98538.58;218514;1260;139757;-67
2024/02/08 13:17:32;;;;;;;9.50;3.40;;;;;;;2.35;79.97;98527.90;217833;1258;139570;-69
2024/02/08 13:22:38;;;;;;;11.90;6.10;;;;;;;2.44;80.02;98529.46;218125;1260;140874;-68
2024/02/08 13:27:44;;;;;;;14.30;4.70;;;;;;;2.59;80.23;98527.75;217977;1257;140788;-67
2024/02/08 13:32:51;;;;;;;9.30;3.90;;;;;;;2.70;79.59;98531.32;218251;1260;140756;-66
2024/02/08 13:38:00;;;;;;;13.40;3.50;;;;;;;2.69;79.39;98528.89;220097;1260;140369;-67
2024/02/08 13:43:05;;;;;;;6.40;3.50;;;;;;;2.75;79.63;98515.61;217262;1260;140954;-70
2024/02/08 13:48:14;;;;;;;21.30;4.60;;;;;;;2.86;79.62;98498.67;216932;1258;141937;-69
2024/02/08 13:53:21;;;;;;;11.70;4.90;;;;;;;2.88;79.21;98487.85;218791;1257;139888;-69
2024/02/08 13:58:25;;;;;;;11.10;4.50;;;;;;;2.83;78.81;98493.23;217634;1257;140480;-71
2024/02/08 14:03:30;;;;;;;8.00;3.00;;;;;;;2.81;78.65;98493.66;217630;1259;139511;-70
2024/02/08 14:08:41;;;;;;;8.90;3.90;;;;;;;2.72;78.28;98491.59;218122;1257;140014;-69
2024/02/08 14:13:49;;;;;;;10.10;3.30;;;;;;;2.62;78.13;98486.35;217749;1257;139612;-69
2024/02/08 14:18:54;;;;;;;10.50;4.50;;;;;;;2.59;78.20;98485.61;218317;1257;141054;-68
2024/02/08 14:24:01;;;;;;;10.40;3.70;;;;;;;2.61;78.43;98488.14;217243;1258;140571;-70
2024/02/08 14:29:08;;;;;;;10.00;4.00;;;;;;;2.64;78.34;98485.33;217141;1258;140852;-69
2024/02/08 14:34:14;;;;;;;12.00;4.40;;;;;;;2.64;78.44;98479.88;220023;1257;139774;-70
2024/02/08 14:39:27;;;;;;;11.10;4.10;;;;;;;2.62;78.22;98472.92;219829;1256;139872;-71
2024/02/08 14:44:41;;;;;;;24.00;6.80;;;;;;;2.60;78.25;98478.48;219862;1257;139810;-70
2024/02/08 14:49:55;;;;;;;5.30;3.40;;;;;;;2.62;78.23;98479.92;217204;1259;139912;-69
2024/02/08 14:55:19;;;;;;;9.30;4.30;;;;;;;2.55;77.82;98472.44;218061;1257;139783;-69
2024/02/08 15:05:46;;;;;;;13.30;5.30;;;;;;;2.41;77.69;98459.50;216901;1257;139636;-68
2024/02/08 15:11:02;;;;;;;10.60;6.10;;;;;;;2.33;77.89;98461.64;217336;1260;140457;-68
2024/02/08 15:16:07;;;;;;;12.80;6.50;;;;;;;2.26;77.77;98461.23;217237;1260;141061;-68
2024/02/08 15:21:12;;;;;;;20.20;7.20;;;;;;;2.19;77.34;98457.03;217373;1259;140438;-71
2024/02/08 15:26:24;;;;;;;16.10;7.70;;;;;;;2.11;77.66;98444.95;217486;1260;140692;-72
2024/02/08 15:31:45;;;;;;;14.50;6.80;;;;;;;1.99;77.53;98438.27;217348;1257;139855;-70
2024/02/08 15:37:12;;;;;;;11.70;5.90;;;;;;;1.87;77.89;98443.67;217160;1260;139896;-69
2024/02/08 15:42:20;;;;;;;14.30;6.50;;;;;;;1.74;77.75;98435.02;217722;1260;139459;-69
2024/02/08 15:47:28;;;;;;;22.40;7.60;;;;;;;1.64;78.01;98432.19;217772;1257;139534;-71
2024/02/08 15:52:36;;;;;;;14.80;7.00;;;;;;;1.52;77.87;98428.08;218158;1257;140501;-69
2024/02/08 15:57:46;;;;;;;17.50;8.30;;;;;;;1.45;78.20;98430.81;218451;1260;140354;-70
2024/02/08 16:02:51;;;;;;;17.60;8.50;;;;;;;1.41;78.23;98438.55;217525;1256;139711;-68
2024/02/08 16:08:05;;;;;;;30.80;12.50;;;;;;;1.34;78.21;98432.42;217257;1257;139639;-72
2024/02/08 16:13:10;;;;;;;38.60;15.80;;;;;;;1.32;78.44;98439.66;217189;1256;140157;-70
2024/02/08 16:18:24;;;;;;;28.20;14.40;;;;;;;1.29;78.59;98431.70;217882;1260;139890;-70
2024/02/08 16:23:43;;;;;;;22.20;13.60;;;;;;;1.22;78.36;98437.71;217433;1258;140325;-72
2024/02/08 16:28:50;;;;;;;23.70;13.30;;;;;;;1.18;78.95;98441.54;217428;1260;139982;-69
2024/02/08 16:33:55;;;;;;;25.30;13.10;;;;;;;1.14;78.89;98445.70;217281;1257;139953;-68
2024/02/08 16:39:33;;;;;;;24.90;14.50;;;;;;;1.13;79.11;98445.02;218957;1257;350723;-68
2024/02/08 16:44:56;;;;;;;33.30;15.70;;;;;;;1.11;79.12;98444.14;220060;1256;141284;-69
2024/02/08 16:50:16;;;;;;;28.10;14.80;;;;;;;1.15;79.33;98446.66;218321;1257;140888;-69
2024/02/08 16:55:32;;;;;;;17.80;10.60;;;;;;;1.18;79.50;98443.39;217778;1260;140320;-67
2024/02/08 17:00:38;;;;;;;30.70;13.90;;;;;;;1.24;80.03;98443.48;218027;1260;140086;-69
2024/02/08 17:05:53;;;;;;;19.60;9.70;;;;;;;1.25;80.30;98447.67;217688;1256;139826;-71
2024/02/08 17:11:01;;;;;;;22.70;10.90;;;;;;;1.18;79.93;98436.23;218176;1257;140469;-70
2024/02/08 17:16:25;;;;;;;24.40;11.90;;;;;;;1.06;79.98;98431.33;218588;1257;139646;-68
2024/02/08 17:21:55;;;;;;;31.60;15.40;;;;;;;0.98;79.82;98420.97;217093;1257;140788;-68
2024/02/08 17:32:33;;;;;;;26.50;15.20;;;;;;;0.92;80.42;98405.57;217238;1260;140132;-67
2024/02/08 17:37:48;;;;;;;38.90;17.60;;;;;;;0.85;80.33;98418.55;217056;1256;141218;-67
2024/02/08 17:42:58;;;;;;;37.40;16.80;;;;;;;0.85;80.48;98420.90;217333;1260;140304;-67
2024/02/08 17:48:11;;;;;;;45.10;18.50;;;;;;;0.89;80.90;98421.90;217109;1260;140274;-67
2024/02/08 17:53:22;;;;;;;36.60;16.80;;;;;;;0.90;80.93;98424.52;217203;1257;140241;-66
2024/02/08 17:58:30;;;;;;;35.00;20.10;;;;;;;0.90;81.00;98413.42;217607;1257;141126;-68
2024/02/08 18:03:34;;;;;;;49.20;20.80;;;;;;;0.88;81.18;98413.79;217330;1257;139960;-65
2024/02/08 18:08:38;;;;;;;30.70;14.10;;;;;;;0.88;81.01;98402.48;218362;1256;139885;-66
2024/02/08 18:13:44;;;;;;;32.20;16.60;;;;;;;0.87;81.53;98383.16;218588;1256;140499;-65
2024/02/08 18:18:49;;;;;;;18.60;9.60;;;;;;;0.89;81.46;98377.26;218991;1256;140053;-68
2024/02/08 18:23:53;;;;;;;22.20;11.30;;;;;;;0.85;81.14;98375.24;217225;1257;140022;-69
2024/02/08 18:29:02;;;;;;;23.40;13.00;;;;;;;0.82;81.50;98372.71;218562;1256;140572;-69
2024/02/08 18:34:08;;;;;;;79.50;31.70;;;;;;;0.81;81.41;98366.29;218289;1256;140862;-68
2024/02/08 18:39:25;;;;;;;47.30;24.90;;;;;;;0.80;80.94;98364.76;219491;1256;140416;-69
2024/02/08 18:44:32;;;;;;;39.00;20.90;;;;;;;0.78;80.94;98364.52;217342;1256;139905;-69
2024/02/08 18:49:38;;;;;;;46.20;23.30;;;;;;;0.75;80.96;98364.69;217687;1257;140499;-69
2024/02/08 18:54:44;;;;;;;60.90;25.50;;;;;;;0.74;81.07;98361.61;218871;1256;141974;-68
2024/02/08 18:59:51;;;;;;;33.40;16.10;;;;;;;0.74;81.49;98355.68;218406;1256;140668;-69
2024/02/08 19:04:56;;;;;;;26.60;13.40;;;;;;;0.74;80.83;98340.03;217064;1257;141887;-69
2024/02/08 19:10:01;;;;;;;17.30;10.30;;;;;;;0.74;81.18;98333.17;217170;1257;139974;-69
2024/02/08 19:15:07;;;;;;;28.80;10.60;;;;;;;0.76;81.88;98327.64;217633;1257;140753;-69
2024/02/08 19:20:18;;;;;;;19.30;10.60;;;;;;;0.77;81.83;98322.79;217481;1257;139862;-69
2024/02/08 19:25:29;;;;;;;29.00;11.20;;;;;;;0.76;81.14;98318.40;218375;1257;141068;-68
2024/02/08 19:30:33;;;;;;;22.00;10.80;;;;;;;0.72;81.28;98317.00;217824;1257;140235;-68
2024/02/08 19:35:40;;;;;;;21.90;10.40;;;;;;;0.71;81.39;98314.34;218188;1256;141703;-69
2024/02/08 19:40:47;;;;;;;26.50;10.50;;;;;;;0.68;81.44;98309.98;217154;1259;139915;-71
2024/02/08 19:45:53;;;;;;;19.80;11.30;;;;;;;0.71;81.36;98307.92;217186;1256;140412;-68
2024/02/08 19:51:01;;;;;;;18.40;9.20;;;;;;;0.71;81.36;98305.94;217407;1256;139812;-69
2024/02/08 19:56:07;;;;;;;22.30;9.90;;;;;;;0.73;81.44;98301.34;217143;1257;140054;-68
2024/02/08 20:01:16;;;;;;;15.50;8.40;;;;;;;0.73;81.34;98300.04;218272;1256;140493;-68
2024/02/08 20:06:21;;;;;;;23.40;10.20;;;;;;;0.71;81.43;98307.00;217663;1256;139847;-69
2024/02/08 20:11:29;;;;;;;16.50;9.40;;;;;;;0.68;81.39;98311.59;218437;1256;140387;-68
2024/02/08 20:16:37;;;;;;;15.70;9.20;;;;;;;0.60;81.52;98310.83;218302;1256;140832;-68
2024/02/08 20:21:49;;;;;;;16.80;10.80;;;;;;;0.53;82.06;98312.53;218426;1256;139969;-69
2024/02/08 20:26:53;;;;;;;24.90;9.30;;;;;;;0.47;82.39;98306.98;219969;1256;140573;-71
2024/02/08 20:32:00;;;;;;;18.20;10.30;;;;;;;0.42;82.31;98297.47;220043;1256;140789;-71
2024/02/08 20:37:06;;;;;;;14.40;8.00;;;;;;;0.34;82.63;98297.15;218702;1256;141242;-70
2024/02/08 20:42:12;;;;;;;15.30;8.00;;;;;;;0.30;82.65;98287.52;217116;1260;141798;-70
2024/02/08 20:47:19;;;;;;;17.40;9.00;;;;;;;0.27;83.16;98286.81;217696;1256;141193;-71
2024/02/08 20:52:24;;;;;;;26.30;12.40;;;;;;;0.33;83.66;98284.00;217481;1257;139636;-71
2024/02/08 20:57:29;;;;;;;19.30;11.00;;;;;;;0.38;84.05;98282.87;217250;1256;139784;-68
2024/02/08 21:02:34;;;;;;;24.30;14.50;;;;;;;0.39;84.29;98283.11;218119;1256;140394;-67
2024/02/08 21:07:38;;;;;;;25.50;15.70;;;;;;;0.39;84.49;98282.66;218125;1256;140181;-67
2024/02/08 21:12:45;;;;;;;30.40;18.80;;;;;;;0.38;84.47;98283.67;216986;1257;140149;-68
2024/02/08 21:17:50;;;;;;;38.30;19.80;;;;;;;0.36;84.80;98284.11;217016;1257;140302;-69
2024/02/08 21:22:55;;;;;;;30.90;16.00;;;;;;;0.34;84.80;98290.41;217364;1259;139830;-67
2024/02/08 21:28:05;;;;;;;31.20;17.30;;;;;;;0.35;85.25;98288.43;218483;1256;139900;-67
2024/02/08 21:33:13;;;;;;;26.40;15.70;;;;;;;0.36;85.21;98293.20;217314;1256;139712;-68
2024/02/08 21:38:18;;;;;;;28.00;16.40;;;;;;;0.33;85.04;98301.06;217192;1255;139908;-67
2024/02/08 21:43:22;;;;;;;29.50;12.80;;;;;;;0.31;85.55;98308.13;218417;1256;140361;-68
2024/02/08 21:48:27;;;;;;;26.80;14.70;;;;;;;0.27;85.94;98309.92;218315;1257;140072;-68
2024/02/08 21:53:33;;;;;;;27.70;15.30;;;;;;;0.24;85.68;98316.16;217420;1259;142520;-68
2024/02/08 21:58:37;;;;;;;27.20;14.80;;;;;;;0.21;85.89;98318.31;218254;1259;140015;-68
2024/02/08 22:03:41;;;;;;;23.20;11.80;;;;;;;0.18;85.95;98311.53;217224;1256;140509;-68
2024/02/08 22:08:48;;;;;;;22.80;14.30;;;;;;;0.15;86.10;98307.74;218490;1256;139907;-69
2024/02/08 22:13:56;;;;;;;23.40;15.10;;;;;;;0.15;86.11;98307.95;218020;1256;140919;-70
2024/02/08 22:19:02;;;;;;;27.10;15.30;;;;;;;0.16;86.53;98311.89;219320;1256;140514;-70
2024/02/08 22:24:07;;;;;;;31.40;16.60;;;;;;;0.20;86.60;98310.64;219927;1256;141040;-71
2024/02/08 22:29:22;;;;;;;29.10;18.10;;;;;;;0.23;86.59;98303.51;219999;1256;141172;-71
2024/02/08 22:34:26;;;;;;;31.40;16.90;;;;;;;0.25;86.75;98310.73;220018;1256;140105;-70
2024/02/08 22:39:31;;;;;;;27.10;17.10;;;;;;;0.26;86.64;98310.73;217077;1259;139845;-71
2024/02/08 22:44:38;;;;;;;34.40;19.90;;;;;;;0.27;86.87;98304.55;216972;1256;141458;-70
2024/02/08 22:49:42;;;;;;;30.10;20.40;;;;;;;0.27;87.06;98294.27;217096;1257;140206;-69
2024/02/08 22:54:50;;;;;;;37.70;19.50;;;;;;;0.25;87.08;98296.25;217900;1259;140509;-69
2024/02/08 22:59:55;;;;;;;33.40;20.20;;;;;;;0.22;87.05;98296.41;217049;1257;142565;-69
2024/02/08 23:05:00;;;;;;;35.20;19.90;;;;;;;0.20;87.19;98292.86;217487;1257;139988;-69
2024/02/08 23:10:06;;;;;;;37.60;20.00;;;;;;;0.16;87.28;98285.25;218476;1256;141146;-68
2024/02/08 23:15:19;;;;;;;73.10;34.50;;;;;;;0.13;87.49;98270.95;217849;1257;140044;-69
2024/02/08 23:20:25;;;;;;;34.30;18.70;;;;;;;0.11;87.56;98261.38;217185;1257;139899;-68
2024/02/08 23:25:29;;;;;;;33.10;20.90;;;;;;;0.07;87.70;98257.27;217000;1257;141305;-69
2024/02/08 23:30:34;;;;;;;71.00;30.00;;;;;;;0.03;87.78;98245.87;217679;1256;140857;-68
2024/02/08 23:35:40;;;;;;;63.60;24.20;;;;;;;0.01;87.78;98247.74;217447;1259;163292;-69
2024/02/08 23:40:45;;;;;;;66.00;27.70;;;;;;;0.01;87.79;98249.30;218315;1259;140225;-68
2024/02/08 23:45:50;;;;;;;132.80;41.30;;;;;;;0.02;88.47;98244.27;217799;1257;140084;-68
2024/02/08 23:50:56;;;;;;;72.60;31.60;;;;;;;0.05;88.12;98243.41;218957;1255;140988;-68
2024/02/08 23:56:01;;;;;;;43.30;23.60;;;;;;;0.07;88.18;98242.29;218046;1259;140286;-68
